Time;durP1;ratioP1;P1;durP2;ratioP2;P2;SDS_P1;SDS_P2;PMS_P1;PMS_P2;Temp;Humidity;BMP_temperature;BMP_pressure;BME280_temperature;BME280_humidity;BME280_pressure;Samples;Min_cycle;Max_cycle;Signal;HPM_P1;HPM_P2
2022/06/27 00:02:25;;;;;;;9.70;6.47;;;23.70;99.90;;;;;;12978312;22;20223;-82
2022/06/27 00:07:27;;;;;;;9.90;6.82;;;23.80;99.90;;;;;;12980710;22;20579;-83
2022/06/27 00:12:30;;;;;;;8.25;6.47;;;23.80;99.90;;;;;;12984043;22;20216;-82
2022/06/27 00:17:33;;;;;;;10.23;6.10;;;23.70;99.90;;;;;;12983064;22;20166;-82
2022/06/27 00:22:35;;;;;;;7.07;6.07;;;23.70;99.90;;;;;;12985061;22;20190;-82
2022/06/27 00:27:38;;;;;;;9.10;6.13;;;23.70;99.90;;;;;;12985107;22;20173;-82
2022/06/27 00:32:41;;;;;;;10.40;6.30;;;23.70;99.90;;;;;;12984220;22;20262;-82
2022/06/27 00:37:44;;;;;;;21.65;7.28;;;23.70;99.90;;;;;;12982083;22;20200;-82
2022/06/27 00:42:46;;;;;;;7.28;6.15;;;23.70;99.90;;;;;;12989372;22;20196;-82
2022/06/27 00:47:50;;;;;;;9.38;6.47;;;23.70;99.90;;;;;;12983551;22;20170;-82
2022/06/27 00:52:53;;;;;;;7.35;6.63;;;23.70;99.90;;;;;;12983786;22;20185;-82
2022/06/27 00:57:55;;;;;;;8.38;5.75;;;23.60;99.90;;;;;;12982155;22;20235;-82
2022/06/27 01:02:58;;;;;;;9.15;5.93;;;23.60;99.90;;;;;;12956626;22;20182;-82
2022/06/27 01:08:01;;;;;;;7.80;5.38;;;23.60;99.90;;;;;;12981195;22;20280;-82
2022/06/27 01:13:03;;;;;;;7.30;5.15;;;23.60;99.90;;;;;;12955427;22;20181;-82
2022/06/27 01:18:07;;;;;;;8.30;5.72;;;23.60;99.90;;;;;;13003039;22;20188;-82
2022/06/27 01:23:11;;;;;;;5.85;5.35;;;23.60;99.90;;;;;;12983236;22;20288;-82
2022/06/27 01:28:14;;;;;;;8.85;5.28;;;23.60;99.90;;;;;;12980884;22;20607;-82
2022/06/27 01:33:16;;;;;;;8.90;5.63;;;23.60;99.90;;;;;;12981510;22;20220;-82
2022/06/27 01:38:19;;;;;;;9.68;5.70;;;23.60;99.90;;;;;;12981790;22;20173;-82
2022/06/27 01:43:21;;;;;;;8.02;5.45;;;23.50;99.90;;;;;;12983622;22;20236;-82
2022/06/27 01:48:24;;;;;;;7.35;5.47;;;23.50;99.90;;;;;;12981184;22;20515;-82
2022/06/27 01:53:29;;;;;;;7.30;5.78;;;23.50;99.90;;;;;;12980737;22;20267;-82
2022/06/27 01:58:33;;;;;;;8.43;6.28;;;23.50;99.90;;;;;;12980677;22;20178;-82
2022/06/27 02:03:35;;;;;;;7.75;5.95;;;23.50;99.90;;;;;;12980708;22;20178;-82
2022/06/27 02:08:41;;;;;;;7.28;5.63;;;23.50;99.90;;;;;;12955524;22;20247;-82
2022/06/27 02:13:44;;;;;;;6.68;5.95;;;23.50;99.90;;;;;;12980994;22;20869;-82
2022/06/27 02:18:48;;;;;;;9.52;5.65;;;23.50;99.90;;;;;;12980101;22;20519;-83
2022/06/27 02:23:53;;;;;;;7.35;5.22;;;23.50;99.90;;;;;;12954683;22;20243;-82
2022/06/27 02:28:59;;;;;;;6.32;5.22;;;23.50;99.90;;;;;;12955310;22;20185;-82
2022/06/27 02:34:05;;;;;;;8.32;6.32;;;23.50;99.90;;;;;;12980511;22;20197;-82
2022/06/27 02:39:10;;;;;;;6.85;5.82;;;23.40;99.90;;;;;;12999818;22;20174;-82
2022/06/27 02:44:14;;;;;;;6.22;5.63;;;23.40;99.90;;;;;;12980024;22;20583;-82
2022/06/27 02:49:17;;;;;;;5.63;5.13;;;23.50;99.90;;;;;;12980331;22;20170;-82
2022/06/27 02:54:41;;;;;;;6.60;5.80;;;23.50;99.90;;;;;;12979633;22;20707;-82
2022/06/27 02:59:59;;;;;;;5.70;5.20;;;23.50;99.90;;;;;;12955720;22;20196;-82
2022/06/27 03:05:02;;;;;;;8.48;5.75;;;23.50;99.90;;;;;;12978718;22;20201;-82
2022/06/27 03:10:08;;;;;;;6.07;5.50;;;23.50;99.90;;;;;;12978677;22;20181;-82
2022/06/27 03:15:11;;;;;;;6.47;5.40;;;23.50;99.90;;;;;;12978303;22;20259;-83
2022/06/27 03:20:14;;;;;;;6.28;5.68;;;23.50;99.90;;;;;;12978428;22;20223;-83
2022/06/27 03:25:30;;;;;;;5.60;5.10;;;23.50;99.90;;;;;;12956518;22;20205;-83
2022/06/27 03:30:33;;;;;;;5.82;5.13;;;23.50;99.90;;;;;;12978590;22;20223;-82
2022/06/27 03:35:36;;;;;;;6.35;5.82;;;23.50;99.90;;;;;;12976750;22;20516;-83
2022/06/27 03:40:39;;;;;;;6.03;5.47;;;23.50;99.90;;;;;;12976337;22;20166;-83
2022/06/27 03:45:42;;;;;;;5.22;4.72;;;23.60;99.90;;;;;;12978024;22;20637;-83
2022/06/27 03:50:45;;;;;;;6.15;5.57;;;23.60;99.90;;;;;;12978262;22;20511;-83
2022/06/27 03:55:48;;;;;;;5.53;5.03;;;23.60;99.90;;;;;;12977692;22;20286;-82
2022/06/27 04:00:50;;;;;;;5.65;5.15;;;23.60;99.90;;;;;;12953037;22;20629;-83
2022/06/27 04:05:53;;;;;;;5.75;5.25;;;23.60;99.90;;;;;;12977667;22;20228;-83
2022/06/27 04:10:56;;;;;;;6.18;5.22;;;23.60;99.90;;;;;;12978035;22;20233;-83
2022/06/27 04:16:05;;;;;;;6.38;5.80;;;23.60;99.90;;;;;;12977734;22;20194;-83
2022/06/27 04:21:26;;;;;;;6.22;5.13;;;23.60;99.90;;;;;;13001788;22;20625;-83
2022/06/27 04:26:37;;;;;;;5.22;4.72;;;23.70;99.90;;;;;;12954935;22;20235;-83
2022/06/27 04:31:40;;;;;;;5.70;5.20;;;23.80;99.90;;;;;;12953037;22;20177;-83
2022/06/27 04:36:44;;;;;;;5.43;4.93;;;23.90;99.90;;;;;;12977391;22;20201;-82
2022/06/27 04:41:50;;;;;;;8.32;5.78;;;24.20;99.90;;;;;;12927781;22;20563;-82
2022/06/27 04:46:54;;;;;;;6.70;6.00;;;24.00;99.90;;;;;;12978009;22;20227;-82
2022/06/27 04:52:11;;;;;;;10.88;5.70;;;23.90;99.90;;;;;;12978223;22;20173;-83
2022/06/27 04:57:13;;;;;;;5.03;4.63;;;23.90;99.90;;;;;;12952652;22;20201;-84
2022/06/27 05:02:16;;;;;;;6.72;5.72;;;23.90;99.90;;;;;;12956371;22;20508;-82
2022/06/27 05:07:19;;;;;;;5.63;5.13;;;23.90;99.90;;;;;;12951907;22;20177;-82
2022/06/27 05:12:22;;;;;;;5.13;4.72;;;23.90;99.90;;;;;;12979827;22;20204;-82
2022/06/27 05:17:24;;;;;;;6.43;5.60;;;23.80;99.90;;;;;;12980057;22;20198;-82
2022/06/27 05:22:27;;;;;;;6.60;5.93;;;23.80;99.90;;;;;;12979479;22;20725;-82
2022/06/27 05:27:30;;;;;;;5.18;4.78;;;23.90;99.90;;;;;;12979669;22;20182;-82
2022/06/27 05:32:32;;;;;;;6.15;5.65;;;23.90;99.90;;;;;;12979871;22;20227;-82
2022/06/27 05:37:37;;;;;;;9.13;7.10;;;23.90;99.90;;;;;;12979910;22;20194;-82
2022/06/27 05:42:42;;;;;;;6.35;5.85;;;24.00;99.90;;;;;;12979494;22;20223;-83
2022/06/27 05:47:45;;;;;;;6.50;5.93;;;24.00;99.90;;;;;;12979548;22;20235;-83
2022/06/27 05:52:53;;;;;;;6.53;5.93;;;24.00;99.90;;;;;;12979729;22;20181;-83
2022/06/27 05:57:57;;;;;;;6.75;6.18;;;24.00;99.90;;;;;;12980180;22;20248;-82
2022/06/27 06:03:00;;;;;;;7.88;6.43;;;24.00;99.90;;;;;;12982192;22;20547;-82
2022/06/27 06:08:05;;;;;;;14.80;7.22;;;24.10;99.90;;;;;;12979570;22;20204;-83
2022/06/27 06:13:08;;;;;;;6.05;5.55;;;24.10;99.90;;;;;;12954833;22;20515;-82
2022/06/27 06:18:11;;;;;;;6.70;6.20;;;24.20;99.90;;;;;;12979839;22;20192;-83
2022/06/27 06:23:19;;;;;;;8.40;6.05;;;24.20;99.90;;;;;;12979875;22;20202;-83
2022/06/27 06:28:23;;;;;;;6.35;5.75;;;24.30;99.90;;;;;;12929491;22;20174;-83
2022/06/27 06:33:26;;;;;;;6.97;6.30;;;24.40;99.90;;;;;;12977440;22;20212;-83
2022/06/27 06:38:29;;;;;;;6.30;5.80;;;24.50;99.90;;;;;;12978237;22;20510;-82
2022/06/27 06:43:32;;;;;;;8.50;7.00;;;24.60;99.90;;;;;;12952947;22;20232;-83
2022/06/27 06:48:58;;;;;;;5.93;5.43;;;24.70;99.90;;;;;;12999992;22;20181;-83
2022/06/27 06:54:02;;;;;;;7.47;6.78;;;24.80;99.90;;;;;;12978764;22;20520;-83
2022/06/27 06:59:05;;;;;;;6.22;5.63;;;24.90;99.90;;;;;;12979852;22;20224;-82
2022/06/27 07:04:08;;;;;;;6.38;5.85;;;25.00;99.90;;;;;;12980078;22;20228;-83
2022/06/27 07:09:11;;;;;;;10.60;6.70;;;25.10;99.90;;;;;;12978120;22;20173;-82
2022/06/27 07:14:15;;;;;;;6.63;5.88;;;25.20;99.90;;;;;;12979814;22;20234;-83
2022/06/27 07:19:18;;;;;;;6.63;5.78;;;25.30;99.90;;;;;;12996876;22;20477;-83
2022/06/27 07:24:20;;;;;;;6.25;5.68;;;25.20;99.90;;;;;;12980277;22;20255;-83
2022/06/27 07:29:23;;;;;;;6.07;5.57;;;25.30;99.90;;;;;;12979509;22;20556;-82
2022/06/27 07:34:26;;;;;;;6.03;5.53;;;25.30;99.90;;;;;;12977557;22;20198;-83
2022/06/27 07:39:28;;;;;;;8.77;6.55;;;25.30;99.90;;;;;;12978498;22;20555;-83
2022/06/27 07:44:34;;;;;;;6.70;6.10;;;25.30;99.90;;;;;;12980509;22;20174;-82
2022/06/27 07:49:37;;;;;;;6.38;5.68;;;25.50;99.90;;;;;;12995990;22;20223;-82
2022/06/27 07:54:40;;;;;;;13.73;6.10;;;25.70;99.90;;;;;;12977005;22;20194;-82
2022/06/27 07:59:42;;;;;;;6.20;5.70;;;25.60;99.90;;;;;;12952343;22;20174;-82
2022/06/27 08:04:45;;;;;;;6.28;5.70;;;25.80;99.90;;;;;;12980508;22;20166;-82
2022/06/27 08:09:47;;;;;;;6.45;5.95;;;25.80;99.90;;;;;;12953294;22;20520;-83
2022/06/27 08:14:50;;;;;;;6.88;6.30;;;26.10;99.90;;;;;;12998462;22;20193;-83
2022/06/27 08:19:53;;;;;;;6.28;5.75;;;26.10;99.90;;;;;;12980622;22;20550;-83
2022/06/27 08:24:55;;;;;;;10.10;5.20;;;25.80;99.90;;;;;;12978560;22;20194;-82
2022/06/27 08:29:58;;;;;;;6.30;5.80;;;26.10;99.90;;;;;;12997494;22;20212;-83
2022/06/27 08:35:01;;;;;;;6.65;6.15;;;26.40;99.90;;;;;;12983785;22;20185;-82
2022/06/27 08:40:06;;;;;;;9.13;5.93;;;26.20;99.90;;;;;;12984405;22;20551;-83
2022/06/27 08:45:10;;;;;;;7.03;6.05;;;26.50;99.90;;;;;;13002134;22;20166;-82
2022/06/27 08:50:14;;;;;;;11.77;7.10;;;26.40;99.90;;;;;;12982176;22;20236;-83
2022/06/27 08:55:22;;;;;;;9.30;6.50;;;26.80;99.90;;;;;;12957104;22;20251;-82
2022/06/27 09:00:25;;;;;;;6.65;6.05;;;26.60;99.90;;;;;;12980897;22;20170;-82
2022/06/27 09:05:30;;;;;;;9.27;6.53;;;26.20;99.90;;;;;;12983034;22;20165;-82
2022/06/27 09:10:34;;;;;;;6.28;5.78;;;26.20;99.90;;;;;;12981150;22;20204;-83
2022/06/27 09:15:39;;;;;;;6.22;5.63;;;26.30;99.90;;;;;;12999760;22;20235;-82
2022/06/27 09:20:52;;;;;;;7.25;5.88;;;26.70;99.90;;;;;;12983128;22;20162;-83
2022/06/27 09:26:02;;;;;;;6.40;5.80;;;26.70;99.90;;;;;;12984642;22;20243;-83
2022/06/27 09:31:13;;;;;;;7.63;6.00;;;26.80;99.70;;;;;;12999511;22;20165;-83
2022/06/27 09:36:15;;;;;;;7.18;6.40;;;26.40;99.90;;;;;;12999706;22;20193;-83
2022/06/27 09:41:19;;;;;;;14.35;6.47;;;26.60;99.90;;;;;;12980587;22;20216;-83
2022/06/27 09:46:27;;;;;;;10.02;5.97;;;26.50;99.90;;;;;;12981705;22;20169;-83
2022/06/27 09:51:34;;;;;;;9.13;6.57;;;26.60;99.90;;;;;;12980943;22;20223;-83
2022/06/27 09:56:41;;;;;;;6.70;6.20;;;26.70;98.10;;;;;;12981397;22;20197;-83
2022/06/27 10:01:44;;;;;;;6.55;5.95;;;26.80;99.90;;;;;;12982007;22;20158;-82
2022/06/27 10:06:47;;;;;;;7.43;6.68;;;27.00;98.60;;;;;;12983068;22;20173;-83
2022/06/27 10:12:18;;;;;;;9.23;5.90;;;26.90;98.80;;;;;;12981094;22;20174;-83
2022/06/27 10:17:26;;;;;;;6.50;6.00;;;27.20;98.10;;;;;;12980659;22;20202;-83
2022/06/27 10:22:28;;;;;;;6.80;6.20;;;26.50;99.00;;;;;;12996706;22;20186;-83
2022/06/27 10:27:31;;;;;;;7.55;6.00;;;26.70;99.10;;;;;;12980815;22;20174;-83
2022/06/27 10:32:43;;;;;;;7.30;6.60;;;27.20;98.90;;;;;;12980434;22;20165;-83
2022/06/27 10:37:46;;;;;;;7.00;6.40;;;26.90;98.20;;;;;;12972273;22;20190;-83
2022/06/27 10:42:54;;;;;;;7.03;6.32;;;27.10;97.70;;;;;;12981598;22;20223;-84
2022/06/27 10:48:01;;;;;;;8.10;6.20;;;27.60;97.50;;;;;;12981458;22;20169;-91
2022/06/27 10:53:19;;;;;;;7.35;6.47;;;28.00;96.30;;;;;;12983913;22;20636;-92
2022/06/27 10:58:29;;;;;;;5.88;5.35;;;28.10;95.80;;;;;;12982377;22;20193;-91
2022/06/27 11:03:38;;;;;;;10.13;6.28;;;28.60;94.20;;;;;;12983577;22;20170;-92
2022/06/27 11:08:46;;;;;;;8.23;6.30;;;28.60;94.30;;;;;;12984131;22;20173;-92
2022/06/27 11:13:57;;;;;;;9.27;7.68;;;28.20;95.30;;;;;;12982458;22;20178;-92
2022/06/27 11:20:04;;;;;;;6.07;5.57;;;27.90;95.30;;;;;;12985132;22;20194;-91
2022/06/27 11:24:28;;;;;;;5.40;5.00;;;27.90;94.40;;;;;;12982162;22;20586;-93
2022/06/27 11:34:53;;;;;;;6.13;5.53;;;28.90;93.70;;;;;;12981306;22;20247;-92
2022/06/27 11:40:05;;;;;;;7.93;6.05;;;28.30;94.20;;;;;;12954466;22;20193;-91
2022/06/27 11:45:13;;;;;;;8.30;4.95;;;28.20;94.00;;;;;;12979540;22;20640;-92
2022/06/27 11:50:19;;;;;;;6.95;4.82;;;28.00;93.70;;;;;;12997453;22;20224;-92
2022/06/27 11:55:25;;;;;;;6.13;5.55;;;28.40;91.40;;;;;;12963589;22;20201;-92
2022/06/27 12:00:31;;;;;;;5.07;4.68;;;28.00;93.90;;;;;;13001617;22;20219;-92
2022/06/27 12:05:35;;;;;;;6.07;5.30;;;28.50;93.00;;;;;;12984240;22;20177;-92
2022/06/27 12:16:13;;;;;;;9.65;5.32;;;29.30;92.10;;;;;;12986564;22;20578;-92
2022/06/27 12:21:15;;;;;;;7.85;6.75;;;29.10;91.90;;;;;;12958184;22;20170;-92
2022/06/27 12:26:18;;;;;;;9.02;6.13;;;28.20;93.70;;;;;;12982413;22;20206;-92
2022/06/27 12:31:21;;;;;;;9.77;5.65;;;27.90;94.30;;;;;;12985117;22;20503;-92
2022/06/27 12:36:24;;;;;;;11.18;5.07;;;29.10;91.30;;;;;;12955873;22;20199;-86
2022/06/27 12:41:26;;;;;;;13.07;5.70;;;29.90;90.50;;;;;;12984206;22;20219;-85
2022/06/27 12:46:30;;;;;;;11.75;5.07;;;29.50;92.50;;;;;;12982803;22;20566;-85
2022/06/27 12:51:52;;;;;;;12.48;5.05;;;29.60;95.00;;;;;;12982553;22;20562;-84
2022/06/27 12:57:06;;;;;;;8.70;5.10;;;29.70;95.00;;;;;;12994740;22;20239;-84
2022/06/27 13:02:09;;;;;;;9.48;4.93;;;29.70;96.40;;;;;;12955879;22;20170;-85
2022/06/27 13:07:12;;;;;;;6.05;5.28;;;29.70;96.20;;;;;;12982054;22;20173;-84
2022/06/27 13:12:15;;;;;;;8.73;5.40;;;29.60;97.40;;;;;;12982007;22;20219;-84
2022/06/27 13:17:17;;;;;;;6.88;5.18;;;29.80;96.70;;;;;;12982047;22;20185;-85
2022/06/27 13:22:20;;;;;;;12.10;5.07;;;29.70;96.60;;;;;;12983028;22;20240;-85
2022/06/27 13:27:23;;;;;;;8.10;4.60;;;29.50;97.90;;;;;;12980609;22;20185;-85
2022/06/27 13:32:25;;;;;;;7.05;4.50;;;29.60;98.00;;;;;;12980236;22;20555;-84
2022/06/27 13:37:28;;;;;;;9.38;4.82;;;29.50;97.30;;;;;;12982845;22;20524;-84
2022/06/27 13:42:32;;;;;;;6.35;4.78;;;29.50;97.80;;;;;;12982265;22;20165;-84
2022/06/27 13:47:34;;;;;;;6.80;4.25;;;29.60;97.70;;;;;;12983112;22;20551;-84
2022/06/27 13:52:37;;;;;;;4.82;4.35;;;29.50;96.30;;;;;;12955950;22;20174;-84
2022/06/27 13:57:40;;;;;;;6.30;4.53;;;29.40;98.20;;;;;;12982241;22;20239;-84
2022/06/27 14:03:03;;;;;;;5.18;4.68;;;29.50;97.60;;;;;;13000047;22;20197;-84
2022/06/27 14:08:06;;;;;;;4.72;4.32;;;29.40;97.20;;;;;;12982053;22;20227;-84
2022/06/27 14:13:10;;;;;;;4.57;4.05;;;29.70;91.00;;;;;;12980943;22;20516;-84
2022/06/27 14:18:13;;;;;;;4.63;4.22;;;29.60;95.10;;;;;;12981220;22;20189;-84
2022/06/27 14:23:15;;;;;;;5.30;4.50;;;29.50;97.20;;;;;;12981112;22;20528;-84
2022/06/27 14:28:18;;;;;;;7.03;3.97;;;29.40;97.40;;;;;;12979175;22;20706;-84
2022/06/27 14:33:20;;;;;;;5.70;4.35;;;29.60;95.60;;;;;;12978898;22;20239;-84
2022/06/27 14:38:24;;;;;;;10.98;4.82;;;29.20;97.50;;;;;;12977979;22;20247;-84
2022/06/27 14:43:26;;;;;;;6.10;4.95;;;29.50;93.60;;;;;;12953096;22;20570;-84
2022/06/27 14:48:29;;;;;;;11.80;5.35;;;29.30;94.00;;;;;;12980395;22;20170;-84
2022/06/27 14:53:32;;;;;;;5.35;4.85;;;29.50;86.70;;;;;;12980275;22;20633;-84
2022/06/27 14:58:34;;;;;;;5.70;5.20;;;29.30;94.20;;;;;;12978438;22;20676;-84
2022/06/27 15:03:38;;;;;;;5.50;5.00;;;29.30;94.30;;;;;;12977977;22;20204;-84
2022/06/27 15:08:41;;;;;;;5.10;4.60;;;29.20;94.50;;;;;;12978049;22;20178;-84
2022/06/27 15:13:44;;;;;;;7.32;4.68;;;29.20;94.70;;;;;;12978657;22;20551;-84
2022/06/27 15:18:46;;;;;;;7.28;5.40;;;29.20;94.80;;;;;;12978901;22;20247;-84
2022/06/27 15:23:49;;;;;;;5.30;4.80;;;29.40;91.90;;;;;;12981639;22;20193;-84
2022/06/27 15:28:51;;;;;;;6.55;5.88;;;29.30;94.20;;;;;;12953638;22;20279;-85
2022/06/27 15:33:54;;;;;;;5.25;4.63;;;29.10;94.00;;;;;;12979447;22;20170;-84
2022/06/27 15:38:58;;;;;;;5.50;4.78;;;29.10;95.20;;;;;;12979501;22;20185;-84
2022/06/27 15:44:01;;;;;;;9.45;4.70;;;29.00;95.70;;;;;;12980459;22;20166;-84
2022/06/27 15:49:04;;;;;;;7.88;4.68;;;29.10;92.80;;;;;;12980939;22;20170;-84
2022/06/27 15:54:07;;;;;;;5.05;4.65;;;29.00;93.80;;;;;;12979871;22;20169;-84
2022/06/27 15:59:09;;;;;;;5.75;5.20;;;29.30;93.00;;;;;;12978464;22;20240;-84
2022/06/27 16:04:12;;;;;;;6.13;4.70;;;29.40;93.60;;;;;;12978573;22;20212;-84
2022/06/27 16:09:14;;;;;;;5.38;4.88;;;29.20;94.60;;;;;;12976657;22;20263;-84
2022/06/27 16:14:17;;;;;;;13.27;5.38;;;29.20;93.20;;;;;;12974597;22;20199;-83
2022/06/27 16:19:20;;;;;;;45.55;10.05;;;29.20;93.00;;;;;;12995091;22;20251;-83
2022/06/27 16:24:22;;;;;;;9.57;6.30;;;29.30;94.20;;;;;;12975039;22;20501;-83
2022/06/27 16:29:25;;;;;;;5.72;5.00;;;29.30;94.20;;;;;;12974521;22;20177;-84
2022/06/27 16:34:27;;;;;;;6.43;4.68;;;29.30;93.40;;;;;;12975150;22;20501;-84
2022/06/27 16:39:31;;;;;;;5.28;4.65;;;29.20;94.00;;;;;;12975613;22;20186;-84
2022/06/27 16:44:33;;;;;;;4.85;4.45;;;29.10;94.20;;;;;;12973017;22;20181;-84
2022/06/27 16:49:36;;;;;;;4.88;4.47;;;29.10;95.00;;;;;;12991816;22;20170;-84
2022/06/27 16:54:42;;;;;;;5.57;4.97;;;29.20;92.40;;;;;;12995992;22;20490;-84
2022/06/27 16:59:45;;;;;;;5.35;4.95;;;29.20;92.50;;;;;;12979365;22;20240;-84
2022/06/27 17:04:48;;;;;;;5.03;4.57;;;29.10;94.70;;;;;;12996289;22;20512;-84
2022/06/27 17:09:51;;;;;;;5.78;4.95;;;29.00;93.50;;;;;;12980551;22;20165;-84
2022/06/27 17:14:54;;;;;;;4.75;4.35;;;28.70;91.40;;;;;;12980052;22;20178;-83
2022/06/27 17:19:57;;;;;;;4.85;4.45;;;28.50;95.50;;;;;;12978763;22;20231;-84
2022/06/27 17:25:00;;;;;;;5.05;4.65;;;28.30;96.30;;;;;;12974968;22;20248;-84
2022/06/27 17:30:04;;;;;;;5.82;5.22;;;28.10;96.10;;;;;;12979083;22;20166;-84
2022/06/27 17:35:07;;;;;;;5.43;4.93;;;28.10;96.40;;;;;;12997801;22;20196;-84
2022/06/27 17:40:11;;;;;;;4.88;4.47;;;28.10;95.10;;;;;;12977707;22;20270;-84
2022/06/27 17:45:14;;;;;;;5.18;4.78;;;28.10;97.20;;;;;;12995584;22;20215;-84
2022/06/27 17:50:17;;;;;;;4.82;4.45;;;28.10;97.00;;;;;;12976057;22;20654;-84
2022/06/27 17:55:19;;;;;;;4.78;4.38;;;28.20;97.10;;;;;;12974695;22;20178;-85
2022/06/27 18:00:23;;;;;;;5.55;5.05;;;28.20;97.10;;;;;;12995584;22;20565;-85
2022/06/27 18:05:26;;;;;;;7.38;5.45;;;28.50;96.20;;;;;;12950310;22;20174;-84
2022/06/27 18:10:28;;;;;;;4.68;4.38;;;28.50;94.50;;;;;;12974006;22;20486;-84
2022/06/27 18:15:31;;;;;;;6.75;4.63;;;28.30;96.50;;;;;;12997053;22;20166;-84
2022/06/27 18:20:36;;;;;;;5.35;4.63;;;28.20;96.60;;;;;;12971791;22;20189;-91
2022/06/27 18:25:38;;;;;;;19.23;6.72;;;28.10;96.60;;;;;;12977144;22;20202;-92
2022/06/27 18:30:41;;;;;;;18.70;5.60;;;28.00;95.40;;;;;;12998425;22;20170;-91
2022/06/27 18:35:53;;;;;;;9.82;5.90;;;28.00;94.70;;;;;;12979071;22;20228;-91
2022/06/27 18:40:56;;;;;;;9.25;5.35;;;28.00;96.80;;;;;;12953860;22;20528;-92
2022/06/27 18:46:00;;;;;;;9.95;6.03;;;27.80;96.70;;;;;;13000524;22;20628;-91
2022/06/27 18:51:03;;;;;;;8.00;6.57;;;27.60;97.00;;;;;;12977591;22;20216;-91
2022/06/27 18:56:06;;;;;;;9.75;6.82;;;27.40;97.90;;;;;;12978360;22;20227;-91
2022/06/27 19:01:08;;;;;;;8.43;6.25;;;27.20;98.60;;;;;;12978262;22;20557;-91
2022/06/27 19:06:12;;;;;;;10.10;7.20;;;27.00;99.70;;;;;;12977815;22;20904;-91
2022/06/27 19:11:15;;;;;;;9.65;7.18;;;26.70;99.90;;;;;;12977237;22;20231;-89
2022/06/27 19:16:18;;;;;;;8.38;7.18;;;26.60;99.90;;;;;;12978764;22;20197;-92
2022/06/27 19:21:21;;;;;;;27.75;7.18;;;26.40;99.90;;;;;;12973543;22;20173;-84
2022/06/27 19:26:25;;;;;;;20.20;8.35;;;26.40;99.90;;;;;;12973543;22;20205;-85
2022/06/27 19:31:28;;;;;;;8.18;6.90;;;26.60;99.90;;;;;;12965638;22;20177;-84
2022/06/27 19:36:30;;;;;;;10.73;6.20;;;26.80;99.90;;;;;;12974358;22;20181;-84
2022/06/27 19:41:33;;;;;;;16.92;7.30;;;26.80;99.90;;;;;;12977271;22;20219;-82
2022/06/27 19:46:35;;;;;;;196.63;23.00;;;26.70;99.90;;;;;;12976819;22;20173;-83
2022/06/27 19:51:42;;;;;;;158.85;21.35;;;26.90;99.90;;;;;;12978296;22;20215;-83
2022/06/27 19:56:46;;;;;;;125.28;18.50;;;27.40;99.90;;;;;;12994592;22;20181;-83
2022/06/27 20:01:49;;;;;;;136.60;17.27;;;27.60;99.90;;;;;;12979321;22;20157;-84
2022/06/27 20:07:25;;;;;;;98.55;15.95;;;27.80;99.90;;;;;;12979918;22;20219;-84
2022/06/27 20:12:14;;;;;;;89.07;15.85;;;27.90;99.90;;;;;;12977774;22;20177;-83
2022/06/27 20:17:17;;;;;;;77.47;12.60;;;27.90;99.90;;;;;;12971995;22;20484;-83
2022/06/27 20:22:19;;;;;;;53.00;11.43;;;27.90;99.90;;;;;;12975530;22;20520;-83
2022/06/27 20:27:23;;;;;;;64.07;12.25;;;27.90;99.90;;;;;;12974920;22;20174;-83
2022/06/27 20:32:27;;;;;;;62.00;11.70;;;27.80;99.90;;;;;;12996007;22;20173;-84
2022/06/27 20:37:29;;;;;;;59.45;12.40;;;27.90;99.90;;;;;;12977493;22;20189;-84
2022/06/27 20:42:33;;;;;;;39.78;11.00;;;27.80;99.90;;;;;;12978887;22;20200;-84
2022/06/27 20:47:36;;;;;;;33.97;8.95;;;27.90;99.90;;;;;;12978984;22;20196;-84
2022/06/27 20:52:39;;;;;;;45.13;10.45;;;27.90;99.90;;;;;;12997761;22;20219;-84
2022/06/27 20:57:43;;;;;;;42.10;10.27;;;27.80;99.90;;;;;;12977759;22;20182;-84
2022/06/27 21:02:46;;;;;;;35.33;9.13;;;27.80;99.90;;;;;;12978283;22;20629;-84
2022/06/27 21:13:19;;;;;;;26.27;9.00;;;27.70;99.90;;;;;;12954762;22;20181;-84
2022/06/27 21:18:21;;;;;;;33.55;10.13;;;27.70;99.90;;;;;;12981506;22;20575;-83
2022/06/27 21:23:24;;;;;;;25.25;8.10;;;27.70;99.90;;;;;;12979532;22;20676;-83
2022/06/27 21:28:26;;;;;;;25.13;9.10;;;27.60;99.90;;;;;;12982589;22;20224;-84
2022/06/27 21:33:29;;;;;;;29.48;9.25;;;27.60;99.90;;;;;;12980941;22;20626;-84
2022/06/27 21:38:31;;;;;;;24.67;8.82;;;27.60;99.90;;;;;;13000879;22;20264;-84
2022/06/27 21:43:34;;;;;;;22.13;9.57;;;27.60;99.90;;;;;;12955252;22;20235;-84
2022/06/27 21:48:37;;;;;;;19.00;7.95;;;27.50;99.90;;;;;;12983063;22;20166;-84
2022/06/27 21:53:40;;;;;;;21.65;8.32;;;27.50;99.90;;;;;;12981132;22;20227;-84
2022/06/27 21:58:42;;;;;;;22.30;8.48;;;27.40;99.90;;;;;;12979879;22;20216;-84
2022/06/27 22:03:45;;;;;;;18.63;7.88;;;27.40;99.90;;;;;;12982391;22;20212;-84
2022/06/27 22:08:48;;;;;;;14.00;8.38;;;27.40;99.90;;;;;;12981594;22;20512;-84
2022/06/27 22:13:50;;;;;;;13.98;7.82;;;27.30;99.90;;;;;;12982189;22;20524;-84
2022/06/27 22:18:52;;;;;;;15.15;8.10;;;27.20;99.90;;;;;;12979940;22;20186;-84
2022/06/27 22:23:55;;;;;;;12.93;7.53;;;27.20;99.90;;;;;;12982096;22;20238;-84
2022/06/27 22:28:59;;;;;;;15.60;8.43;;;27.20;99.90;;;;;;12988810;22;20490;-84
2022/06/27 22:34:01;;;;;;;13.77;8.35;;;27.10;99.90;;;;;;13000338;22;20170;-84
2022/06/27 22:39:04;;;;;;;15.02;8.15;;;27.10;99.90;;;;;;12982515;22;20189;-84
2022/06/27 22:44:10;;;;;;;16.77;7.97;;;27.10;99.90;;;;;;12980822;22;20228;-84
2022/06/27 22:49:12;;;;;;;14.10;8.05;;;27.10;99.90;;;;;;12982598;22;20487;-84
2022/06/27 22:54:15;;;;;;;12.90;7.85;;;27.00;99.90;;;;;;12980765;22;20215;-84
2022/06/27 22:59:17;;;;;;;14.70;8.38;;;27.00;99.90;;;;;;12981883;22;20220;-84
2022/06/27 23:04:20;;;;;;;10.65;7.65;;;26.90;99.90;;;;;;12982527;22;20161;-84
2022/06/27 23:09:23;;;;;;;8.85;6.75;;;26.90;99.90;;;;;;12980905;22;20170;-84
2022/06/27 23:14:25;;;;;;;11.05;6.65;;;26.90;99.90;;;;;;12980192;22;20246;-84
2022/06/27 23:19:28;;;;;;;13.40;8.10;;;26.90;99.90;;;;;;12983456;22;20193;-84
2022/06/27 23:24:30;;;;;;;11.48;7.32;;;26.90;99.90;;;;;;12955557;22;20244;-84
2022/06/27 23:29:34;;;;;;;9.50;7.03;;;26.80;99.90;;;;;;12980396;22;20528;-84
2022/06/27 23:34:36;;;;;;;11.73;6.88;;;26.80;99.90;;;;;;12979921;22;20174;-84
2022/06/27 23:39:39;;;;;;;15.20;7.68;;;26.70;99.90;;;;;;12955441;22;20197;-84
2022/06/27 23:44:42;;;;;;;9.07;7.93;;;26.70;99.90;;;;;;12982175;22;20165;-84
2022/06/27 23:49:45;;;;;;;11.73;7.35;;;26.70;99.90;;;;;;12982196;22;20169;-84
2022/06/27 23:54:48;;;;;;;7.90;6.88;;;26.60;99.90;;;;;;12980813;22;20203;-84
2022/06/27 23:59:50;;;;;;;9.65;7.60;;;26.60;99.90;;;;;;12982105;22;20235;-84
